logo tempoitalia

Diretta Meteo St-Etienne Boutheon, Franciamartedì 17 maggio ore 05:00

Mappa
Sereno 12 °C Sereno 24 Ore: T.min 12 T.max 29
Ponente Nord Km/h 0 Punto di rugiada: 10 °C Umidità: 87% Visibilità: 10 Km
Il sole sorge alle: 06:08 Il sole tramonta alle: 21:10
17 Maggio 2022 05:00 tempo osservato: Sereno Sereno 12 87 1020 vento: Nord N 0
17 Maggio 2022 04:30 tempo osservato: Sereno Sereno 12 87 1020 vento: Nord N 0
17 Maggio 2022 04:00 tempo osservato: Sereno Sereno 12 81 1021 vento: Nord N 0
17 Maggio 2022 03:30 tempo osservato: Sereno Sereno 13 87 1021 vento: Nord N 0
17 Maggio 2022 03:00 tempo osservato: Sereno Sereno 13 87 1021 vento: Nord N 1.8
17 Maggio 2022 02:30 tempo osservato: Sereno Sereno 13 81 1021 vento: Nord N 0
17 Maggio 2022 02:00 tempo osservato: Sereno Sereno 14 76 1021 vento: Nord N 1.8
17 Maggio 2022 01:30 tempo osservato: Sereno Sereno 15 72 1021 vento: Nord N 1.8
17 Maggio 2022 01:00 tempo osservato: Sereno Sereno 15 72 1021 vento: Nord N 3.7
17 Maggio 2022 00:30 tempo osservato: Sereno Sereno 16 63 1021 vento: Nord N 3.7
17 Maggio 2022 00:00 tempo osservato: Sereno Sereno 18 59 1021 vento: Nord N 0
16 Maggio 2022 23:30 tempo osservato: Sereno Sereno 19 52 1021 vento: Nord N 5.5
16 Maggio 2022 23:00 tempo osservato: Sereno Sereno 20 52 1021 vento: Nord N 7.4
16 Maggio 2022 22:30 tempo osservato: Sereno Sereno 21 46 1020 vento: Nord N 7.4
16 Maggio 2022 22:00 tempo osservato: Sereno Sereno 22 43 1020 vento: Nord N/NE 11.1
16 Maggio 2022 21:30 tempo osservato: Sereno Sereno 23 43 1020 vento: Nord N 9.3
16 Maggio 2022 21:00 tempo osservato: Sereno Sereno 23 43 1019 vento: Nord N/NE 7.4
16 Maggio 2022 20:30 tempo osservato: Sereno Sereno 25 38 1019 vento: Nord NE 14.8
16 Maggio 2022 20:00 tempo osservato: Sereno Sereno 26 34 1019 vento: Nord E/NE 16.7
16 Maggio 2022 19:30 tempo osservato: Sereno Sereno 27 32 1019 vento: Nord E 9.3
16 Maggio 2022 19:00 tempo osservato: Sereno Sereno 28 30 1018 vento: Nord E/NE 13
16 Maggio 2022 18:30 tempo osservato: Molto Nuvoloso Molto Nuvoloso 28 30 1018 vento: Nord E/NE 11.1
16 Maggio 2022 18:00 tempo osservato: Sereno Sereno 28 30 1018 vento: Nord NE 13
16 Maggio 2022 17:30 tempo osservato: Sereno Sereno 29 26 1018 vento: Nord N/NO 9.3
16 Maggio 2022 17:00 tempo osservato: Sereno Sereno 29 26 1018 vento: Nord N/NO 14.8
16 Maggio 2022 16:30 tempo osservato: Sereno Sereno 28 28 1018 vento: Nord N/NO 16.7
16 Maggio 2022 16:00 tempo osservato: Sereno Sereno 29 26 1019 vento: Nord N/NO 9.3
16 Maggio 2022 15:30 tempo osservato: Sereno Sereno 28 26 1019 vento: Nord N 16.7
16 Maggio 2022 15:00 tempo osservato: Sereno Sereno 28 26 1019 vento: Nord N 11.1
16 Maggio 2022 14:30 tempo osservato: Sereno Sereno 28 26 1019 vento: Nord N 11.1
16 Maggio 2022 14:00 tempo osservato: Sereno Sereno 27 28 1019 vento: Nord N 9.3
16 Maggio 2022 13:30 tempo osservato: Sereno Sereno 27 28 1020 vento: Nord N 5.5
16 Maggio 2022 13:00 tempo osservato: Sereno Sereno 26 29 1020 vento: Nord N 5.5
16 Maggio 2022 12:30 tempo osservato: Sereno Sereno 26 27 1020 vento: Nord S 9.3
16 Maggio 2022 12:00 tempo osservato: Sereno Sereno 25 27 1020 vento: Nord O 11.1
16 Maggio 2022 11:30 tempo osservato: Sereno Sereno 24 31 1020 vento: Nord N 9.3
16 Maggio 2022 11:00 tempo osservato: Sereno Sereno 23 35 1020 vento: Nord S/SE 9.3
16 Maggio 2022 10:30 tempo osservato: Sereno Sereno 21 43 1020 vento: Nord S/SO 9.3
16 Maggio 2022 10:00 tempo osservato: Sereno Sereno 20 45 1020 vento: Nord SO 7.4
16 Maggio 2022 09:30 tempo osservato: Sereno Sereno 19 52 1020 vento: Nord S 7.4
16 Maggio 2022 09:00 tempo osservato: Sereno Sereno 18 55 1020 vento: Nord S 7.4
16 Maggio 2022 08:30 tempo osservato: Sereno Sereno 17 59 1020 vento: Nord S/SE 13
16 Maggio 2022 08:00 tempo osservato: Sereno Sereno 16 67 1020 vento: Nord N 5.5
16 Maggio 2022 07:30 tempo osservato: Sereno Sereno 15 67 1020 vento: Nord S/SO 7.4
16 Maggio 2022 07:00 tempo osservato: Sereno Sereno 14 71 1019 vento: Nord S/SE 13
16 Maggio 2022 06:30 tempo osservato: Sereno Sereno 14 71 1019 vento: Nord N 5.5
16 Maggio 2022 06:00 tempo osservato: Sereno Sereno 15 62 1019 vento: Nord S 9.3